Carrillo Airport


Codes: MRCR/RIK
Name: Carrillo Airport
City: Nicoya
Country: Costa Rica
Elevation: 6 ft.

Photos at Carrillo Airport


   Photos courtesy of SpottingLog. You can add your own sightings and photos by signing up for a free trial today.



No photos found.

Weather at Carrillo Airport


Time (UTC)DescriptionTempratureWindCloud coverageVisibilityPressureHumidity
23-May-2024 21:00Light Rain30°C9 mph, SW51%10000m1010hPa69%
24-May-2024 00:00Light Rain29°C4 mph, SW58%10000m1011hPa78%
24-May-2024 03:00Light Rain27°C4 mph, SW38%10000m1012hPa85%
24-May-2024 06:00Moderate Rain27°C7 mph, SW43%10000m1012hPa86%
24-May-2024 09:00Light Rain26°C2 mph, W17%10000m1010hPa86%
24-May-2024 12:00Light Rain27°C2 mph, W7%10000m1011hPa84%
24-May-2024 15:00Light Rain29°C2 mph, W76%10000m1013hPa73%
24-May-2024 18:00Light Rain29°C7 mph, SW87%10000m1011hPa73%
24-May-2024 21:00Light Rain29°C7 mph, SW100%10000m1010hPa73%
25-May-2024 00:00Light Rain27°C2 mph, SW100%10000m1010hPa78%
25-May-2024 03:00Broken Clouds27°C2 mph, S77%10000m1012hPa80%
25-May-2024 06:00Broken Clouds27°C2 mph, S54%10000m1012hPa81%
25-May-2024 09:00Clear Sky26°C2 mph, S10%10000m1010hPa83%
25-May-2024 12:00Few Clouds26°C2 mph, N13%10000m1011hPa83%
25-May-2024 15:00Few Clouds29°C0 mph, NW22%10000m1013hPa71%
25-May-2024 18:00Light Rain30°C4 mph, SW24%10000m1011hPa71%
25-May-2024 21:00Light Rain29°C7 mph, SW43%10000m1009hPa78%
26-May-2024 00:00Light Rain27°C4 mph, SW32%10000m1010hPa84%
26-May-2024 03:00Light Rain27°C2 mph, SW33%10000m1012hPa86%
26-May-2024 06:00Light Rain27°C2 mph, SW19%10000m1011hPa86%
26-May-2024 09:00Clear Sky26°C2 mph, W7%10000m1010hPa88%
26-May-2024 12:00Light Rain26°C2 mph, NW7%10000m1011hPa88%
26-May-2024 15:00Clear Sky29°C2 mph, W10%10000m1012hPa73%
26-May-2024 18:00Light Rain31°C7 mph, SW12%10000m1011hPa67%
26-May-2024 21:00Light Rain30°C9 mph, SW11%10000m1009hPa69%
27-May-2024 00:00Clear Sky28°C7 mph, SW6%10000m1010hPa81%
27-May-2024 03:00Few Clouds27°C2 mph, SW16%10000m1012hPa82%
27-May-2024 06:00Few Clouds27°C2 mph, SW12%10000m1012hPa83%
27-May-2024 09:00Light Rain26°C0 mph, SW13%10000m1011hPa87%
27-May-2024 12:00Light Rain26°C2 mph, N21%10000m1012hPa85%
27-May-2024 15:00Light Rain29°C2 mph, SW47%10000m1013hPa69%
27-May-2024 18:00Light Rain29°C7 mph, SW41%10000m1012hPa72%
27-May-2024 21:00Light Rain28°C7 mph, W37%10000m1010hPa77%
28-May-2024 00:00Moderate Rain27°C4 mph, W44%10000m1011hPa84%
28-May-2024 03:00Light Rain26°C2 mph, NW46%10000m1012hPa85%
28-May-2024 06:00Light Rain26°C4 mph, N50%10000m1012hPa85%
28-May-2024 09:00Light Rain26°C4 mph, N44%10000m1011hPa86%
28-May-2024 12:00Scattered Clouds26°C2 mph, NE35%10000m1012hPa85%
28-May-2024 15:00Scattered Clouds29°C0 mph, E41%10000m1013hPa70%
28-May-2024 18:00Light Rain29°C7 mph, S59%10000m1012hPa71%